sensor_id;sensor_type;location;lat;lon;timestamp;P1;durP1;ratioP1;P2;durP2;ratioP2
31306;SDS011;17935;51.120;13.132;2022-09-03T00:00:34;3.53;;;1.80;;
31306;SDS011;17935;51.120;13.132;2022-09-03T00:03:03;2.47;;;2.00;;
31306;SDS011;17935;51.120;13.132;2022-09-03T00:05:47;6.55;;;2.00;;
31306;SDS011;17935;51.120;13.132;2022-09-03T00:08:27;2.20;;;1.92;;
31306;SDS011;17935;51.120;13.132;2022-09-03T00:11:00;2.72;;;1.80;;
31306;SDS011;17935;51.120;13.132;2022-09-03T00:13:30;4.43;;;2.10;;
31306;SDS011;17935;51.120;13.132;2022-09-03T00:15:57;3.67;;;1.80;;
31306;SDS011;17935;51.120;13.132;2022-09-03T00:18:26;2.42;;;1.88;;
31306;SDS011;17935;51.120;13.132;2022-09-03T00:20:56;3.47;;;2.05;;
31306;SDS011;17935;51.120;13.132;2022-09-03T00:23:24;3.38;;;1.67;;
31306;SDS011;17935;51.120;13.132;2022-09-03T00:25:53;2.92;;;2.00;;
31306;SDS011;17935;51.120;13.132;2022-09-03T00:28:25;4.38;;;2.08;;
31306;SDS011;17935;51.120;13.132;2022-09-03T00:31:28;2.03;;;1.83;;
31306;SDS011;17935;51.120;13.132;2022-09-03T00:33:47;3.15;;;1.70;;
31306;SDS011;17935;51.120;13.132;2022-09-03T00:36:17;3.00;;;2.08;;
31306;SDS011;17935;51.120;13.132;2022-09-03T00:38:44;2.28;;;1.85;;
31306;SDS011;17935;51.120;13.132;2022-09-03T00:41:26;4.30;;;2.40;;
31306;SDS011;17935;51.120;13.132;2022-09-03T00:44:02;3.63;;;1.92;;
31306;SDS011;17935;51.120;13.132;2022-09-03T00:46:35;6.40;;;2.30;;
31306;SDS011;17935;51.120;13.132;2022-09-03T00:54:57;2.90;;;1.90;;
31306;SDS011;17935;51.120;13.132;2022-09-03T00:59:54;2.92;;;1.90;;
31306;SDS011;17935;51.120;13.132;2022-09-03T01:02:39;2.45;;;2.20;;
31306;SDS011;17935;51.120;13.132;2022-09-03T01:07:59;6.72;;;2.05;;
31306;SDS011;17935;51.120;13.132;2022-09-03T01:13:23;3.63;;;1.80;;
31306;SDS011;17935;51.120;13.132;2022-09-03T01:16:03;3.97;;;2.15;;
31306;SDS011;17935;51.120;13.132;2022-09-03T01:18:43;3.28;;;1.90;;
31306;SDS011;17935;51.120;13.132;2022-09-03T01:21:17;3.40;;;2.00;;
31306;SDS011;17935;51.120;13.132;2022-09-03T01:29:20;3.90;;;2.00;;
31306;SDS011;17935;51.120;13.132;2022-09-03T01:47:42;3.22;;;2.00;;
31306;SDS011;17935;51.120;13.132;2022-09-03T01:50:35;1.92;;;1.70;;
31306;SDS011;17935;51.120;13.132;2022-09-03T02:01:39;3.10;;;2.20;;
31306;SDS011;17935;51.120;13.132;2022-09-03T02:04:21;4.53;;;2.03;;
31306;SDS011;17935;51.120;13.132;2022-09-03T02:06:48;2.78;;;1.88;;
31306;SDS011;17935;51.120;13.132;2022-09-03T02:09:15;3.88;;;1.80;;
31306;SDS011;17935;51.120;13.132;2022-09-03T02:11:41;6.60;;;2.50;;
31306;SDS011;17935;51.120;13.132;2022-09-03T02:14:08;2.15;;;1.95;;
31306;SDS011;17935;51.120;13.132;2022-09-03T02:16:35;4.78;;;2.17;;
31306;SDS011;17935;51.120;13.132;2022-09-03T02:19:02;9.93;;;1.70;;
31306;SDS011;17935;51.120;13.132;2022-09-03T02:21:32;2.08;;;1.70;;
31306;SDS011;17935;51.120;13.132;2022-09-03T02:23:59;2.22;;;1.90;;
31306;SDS011;17935;51.120;13.132;2022-09-03T02:26:25;4.57;;;2.47;;
31306;SDS011;17935;51.120;13.132;2022-09-03T02:28:52;2.67;;;2.05;;
31306;SDS011;17935;51.120;13.132;2022-09-03T02:31:19;2.92;;;2.15;;
31306;SDS011;17935;51.120;13.132;2022-09-03T02:33:46;2.78;;;1.85;;
31306;SDS011;17935;51.120;13.132;2022-09-03T02:36:16;2.75;;;1.92;;
31306;SDS011;17935;51.120;13.132;2022-09-03T02:38:43;2.33;;;2.10;;
31306;SDS011;17935;51.120;13.132;2022-09-03T02:41:09;2.60;;;2.20;;
31306;SDS011;17935;51.120;13.132;2022-09-03T02:46:22;2.63;;;2.08;;
31306;SDS011;17935;51.120;13.132;2022-09-03T02:48:50;4.85;;;2.15;;
31306;SDS011;17935;51.120;13.132;2022-09-03T02:51:17;3.13;;;2.15;;
31306;SDS011;17935;51.120;13.132;2022-09-03T02:53:43;4.45;;;2.60;;
31306;SDS011;17935;51.120;13.132;2022-09-03T02:56:09;2.90;;;2.53;;
31306;SDS011;17935;51.120;13.132;2022-09-03T02:58:35;10.93;;;2.38;;
31306;SDS011;17935;51.120;13.132;2022-09-03T03:01:01;3.10;;;2.03;;
31306;SDS011;17935;51.120;13.132;2022-09-03T03:03:27;3.60;;;2.13;;
31306;SDS011;17935;51.120;13.132;2022-09-03T03:05:54;2.55;;;2.03;;
31306;SDS011;17935;51.120;13.132;2022-09-03T03:08:21;3.00;;;2.25;;
31306;SDS011;17935;51.120;13.132;2022-09-03T03:10:53;5.35;;;1.75;;
31306;SDS011;17935;51.120;13.132;2022-09-03T03:13:25;5.72;;;2.10;;
31306;SDS011;17935;51.120;13.132;2022-09-03T03:15:54;3.30;;;2.55;;
31306;SDS011;17935;51.120;13.132;2022-09-03T03:18:20;2.88;;;2.20;;
31306;SDS011;17935;51.120;13.132;2022-09-03T03:20:46;2.83;;;2.05;;
31306;SDS011;17935;51.120;13.132;2022-09-03T03:23:12;4.85;;;1.98;;
31306;SDS011;17935;51.120;13.132;2022-09-03T03:25:38;6.32;;;2.47;;
31306;SDS011;17935;51.120;13.132;2022-09-03T03:28:04;3.70;;;2.13;;
31306;SDS011;17935;51.120;13.132;2022-09-03T03:30:31;2.15;;;1.75;;
31306;SDS011;17935;51.120;13.132;2022-09-03T03:32:57;2.38;;;2.17;;
31306;SDS011;17935;51.120;13.132;2022-09-03T03:35:23;2.17;;;1.98;;
31306;SDS011;17935;51.120;13.132;2022-09-03T03:37:49;3.78;;;2.20;;
31306;SDS011;17935;51.120;13.132;2022-09-03T03:40:15;4.60;;;2.60;;
31306;SDS011;17935;51.120;13.132;2022-09-03T03:42:41;4.32;;;2.50;;
31306;SDS011;17935;51.120;13.132;2022-09-03T03:45:08;3.08;;;2.25;;
31306;SDS011;17935;51.120;13.132;2022-09-03T03:47:34;3.80;;;2.92;;
31306;SDS011;17935;51.120;13.132;2022-09-03T03:50:00;3.50;;;2.60;;
31306;SDS011;17935;51.120;13.132;2022-09-03T03:52:26;5.03;;;2.65;;
31306;SDS011;17935;51.120;13.132;2022-09-03T03:54:52;3.92;;;2.53;;
31306;SDS011;17935;51.120;13.132;2022-09-03T03:57:19;3.00;;;2.63;;
31306;SDS011;17935;51.120;13.132;2022-09-03T03:59:48;2.42;;;2.22;;
31306;SDS011;17935;51.120;13.132;2022-09-03T04:02:15;3.53;;;2.88;;
31306;SDS011;17935;51.120;13.132;2022-09-03T04:04:41;10.38;;;3.03;;
31306;SDS011;17935;51.120;13.132;2022-09-03T04:07:07;3.25;;;2.67;;
31306;SDS011;17935;51.120;13.132;2022-09-03T04:09:33;3.28;;;2.70;;
31306;SDS011;17935;51.120;13.132;2022-09-03T04:11:59;8.13;;;3.10;;
31306;SDS011;17935;51.120;13.132;2022-09-03T04:14:26;4.90;;;2.88;;
31306;SDS011;17935;51.120;13.132;2022-09-03T04:16:52;2.92;;;2.63;;
31306;SDS011;17935;51.120;13.132;2022-09-03T04:19:18;2.83;;;2.63;;
31306;SDS011;17935;51.120;13.132;2022-09-03T04:21:44;3.78;;;3.08;;
31306;SDS011;17935;51.120;13.132;2022-09-03T04:24:10;3.60;;;2.85;;
31306;SDS011;17935;51.120;13.132;2022-09-03T04:26:37;3.85;;;3.45;;
31306;SDS011;17935;51.120;13.132;2022-09-03T04:29:04;4.95;;;3.40;;
31306;SDS011;17935;51.120;13.132;2022-09-03T04:31:31;7.43;;;3.13;;
31306;SDS011;17935;51.120;13.132;2022-09-03T04:33:57;3.50;;;2.83;;
31306;SDS011;17935;51.120;13.132;2022-09-03T04:36:24;4.78;;;2.97;;
31306;SDS011;17935;51.120;13.132;2022-09-03T04:38:51;4.65;;;3.00;;
31306;SDS011;17935;51.120;13.132;2022-09-03T04:41:19;4.82;;;2.88;;
31306;SDS011;17935;51.120;13.132;2022-09-03T04:43:49;4.95;;;2.70;;
31306;SDS011;17935;51.120;13.132;2022-09-03T04:46:15;4.22;;;3.28;;
31306;SDS011;17935;51.120;13.132;2022-09-03T04:48:41;3.40;;;2.92;;
31306;SDS011;17935;51.120;13.132;2022-09-03T04:51:08;7.15;;;3.33;;
31306;SDS011;17935;51.120;13.132;2022-09-03T04:53:35;3.65;;;3.10;;
31306;SDS011;17935;51.120;13.132;2022-09-03T04:56:02;6.45;;;3.08;;
31306;SDS011;17935;51.120;13.132;2022-09-03T04:58:28;5.85;;;2.85;;
31306;SDS011;17935;51.120;13.132;2022-09-03T05:00:54;3.30;;;3.00;;
31306;SDS011;17935;51.120;13.132;2022-09-03T05:03:20;3.95;;;3.40;;
31306;SDS011;17935;51.120;13.132;2022-09-03T05:05:53;4.05;;;3.17;;
31306;SDS011;17935;51.120;13.132;2022-09-03T05:08:19;7.87;;;2.90;;
31306;SDS011;17935;51.120;13.132;2022-09-03T05:10:45;4.30;;;3.08;;
31306;SDS011;17935;51.120;13.132;2022-09-03T05:13:11;4.72;;;3.45;;
31306;SDS011;17935;51.120;13.132;2022-09-03T05:15:37;6.18;;;3.88;;
31306;SDS011;17935;51.120;13.132;2022-09-03T05:18:03;7.57;;;3.35;;
31306;SDS011;17935;51.120;13.132;2022-09-03T05:20:29;3.00;;;2.70;;
31306;SDS011;17935;51.120;13.132;2022-09-03T05:22:59;2.90;;;2.30;;
31306;SDS011;17935;51.120;13.132;2022-09-03T05:25:25;2.90;;;2.00;;
31306;SDS011;17935;51.120;13.132;2022-09-03T05:27:51;6.03;;;1.95;;
31306;SDS011;17935;51.120;13.132;2022-09-03T05:30:18;2.85;;;1.85;;
31306;SDS011;17935;51.120;13.132;2022-09-03T05:32:46;5.75;;;1.80;;
31306;SDS011;17935;51.120;13.132;2022-09-03T05:35:12;4.35;;;1.88;;
31306;SDS011;17935;51.120;13.132;2022-09-03T05:37:38;4.55;;;1.95;;
31306;SDS011;17935;51.120;13.132;2022-09-03T05:40:04;2.13;;;1.92;;
31306;SDS011;17935;51.120;13.132;2022-09-03T05:42:30;3.47;;;1.50;;
31306;SDS011;17935;51.120;13.132;2022-09-03T05:44:59;9.90;;;1.50;;
31306;SDS011;17935;51.120;13.132;2022-09-03T05:47:25;4.57;;;1.90;;
31306;SDS011;17935;51.120;13.132;2022-09-03T05:49:51;5.10;;;1.80;;
31306;SDS011;17935;51.120;13.132;2022-09-03T05:52:16;1.88;;;1.40;;
31306;SDS011;17935;51.120;13.132;2022-09-03T05:54:45;2.47;;;1.60;;
31306;SDS011;17935;51.120;13.132;2022-09-03T05:57:11;6.97;;;1.58;;
31306;SDS011;17935;51.120;13.132;2022-09-03T05:59:38;2.00;;;1.67;;
31306;SDS011;17935;51.120;13.132;2022-09-03T06:02:04;4.03;;;1.38;;
31306;SDS011;17935;51.120;13.132;2022-09-03T06:04:30;2.42;;;1.50;;
31306;SDS011;17935;51.120;13.132;2022-09-03T06:06:56;1.50;;;1.40;;
31306;SDS011;17935;51.120;13.132;2022-09-03T06:09:22;3.58;;;1.45;;
31306;SDS011;17935;51.120;13.132;2022-09-03T06:11:48;4.25;;;1.60;;
31306;SDS011;17935;51.120;13.132;2022-09-03T06:14:14;13.05;;;3.13;;
31306;SDS011;17935;51.120;13.132;2022-09-03T06:16:41;5.35;;;1.90;;
31306;SDS011;17935;51.120;13.132;2022-09-03T06:19:08;3.15;;;1.42;;
31306;SDS011;17935;51.120;13.132;2022-09-03T06:21:35;1.98;;;1.60;;
31306;SDS011;17935;51.120;13.132;2022-09-03T06:24:02;5.32;;;1.67;;
31306;SDS011;17935;51.120;13.132;2022-09-03T06:26:28;6.10;;;1.67;;
31306;SDS011;17935;51.120;13.132;2022-09-03T06:28:55;9.07;;;1.70;;
31306;SDS011;17935;51.120;13.132;2022-09-03T06:31:21;2.50;;;1.30;;
31306;SDS011;17935;51.120;13.132;2022-09-03T06:33:47;6.35;;;1.85;;
31306;SDS011;17935;51.120;13.132;2022-09-03T06:36:15;2.42;;;1.60;;
31306;SDS011;17935;51.120;13.132;2022-09-03T06:38:41;8.15;;;2.17;;
31306;SDS011;17935;51.120;13.132;2022-09-03T06:41:08;4.05;;;2.60;;
31306;SDS011;17935;51.120;13.132;2022-09-03T06:43:35;2.65;;;1.90;;
31306;SDS011;17935;51.120;13.132;2022-09-03T06:46:05;3.13;;;1.70;;
31306;SDS011;17935;51.120;13.132;2022-09-03T06:48:32;1.55;;;1.38;;
31306;SDS011;17935;51.120;13.132;2022-09-03T06:51:03;3.55;;;1.05;;
31306;SDS011;17935;51.120;13.132;2022-09-03T06:53:30;2.05;;;1.35;;
31306;SDS011;17935;51.120;13.132;2022-09-03T06:55:58;4.10;;;1.30;;
31306;SDS011;17935;51.120;13.132;2022-09-03T06:58:27;2.30;;;1.00;;
31306;SDS011;17935;51.120;13.132;2022-09-03T07:00:54;2.75;;;1.10;;
31306;SDS011;17935;51.120;13.132;2022-09-03T07:03:25;3.00;;;1.48;;
31306;SDS011;17935;51.120;13.132;2022-09-03T07:05:51;2.50;;;1.25;;
31306;SDS011;17935;51.120;13.132;2022-09-03T07:08:17;1.95;;;1.00;;
31306;SDS011;17935;51.120;13.132;2022-09-03T07:10:46;1.70;;;1.10;;
31306;SDS011;17935;51.120;13.132;2022-09-03T07:13:12;1.42;;;1.00;;
31306;SDS011;17935;51.120;13.132;2022-09-03T07:15:38;2.40;;;1.13;;
31306;SDS011;17935;51.120;13.132;2022-09-03T07:18:05;5.50;;;2.42;;
31306;SDS011;17935;51.120;13.132;2022-09-03T07:20:31;1.33;;;1.08;;
31306;SDS011;17935;51.120;13.132;2022-09-03T07:22:57;3.33;;;1.20;;
31306;SDS011;17935;51.120;13.132;2022-09-03T07:25:23;3.22;;;0.98;;
31306;SDS011;17935;51.120;13.132;2022-09-03T07:27:50;13.18;;;1.13;;
31306;SDS011;17935;51.120;13.132;2022-09-03T07:30:17;3.25;;;1.30;;
31306;SDS011;17935;51.120;13.132;2022-09-03T07:32:46;3.63;;;1.30;;
31306;SDS011;17935;51.120;13.132;2022-09-03T07:35:15;3.83;;;1.20;;
31306;SDS011;17935;51.120;13.132;2022-09-03T07:37:42;2.58;;;1.10;;
31306;SDS011;17935;51.120;13.132;2022-09-03T07:40:08;7.40;;;1.90;;
31306;SDS011;17935;51.120;13.132;2022-09-03T07:42:35;4.47;;;1.30;;
31306;SDS011;17935;51.120;13.132;2022-09-03T07:45:05;1.58;;;1.20;;
31306;SDS011;17935;51.120;13.132;2022-09-03T07:47:33;1.63;;;1.13;;
31306;SDS011;17935;51.120;13.132;2022-09-03T07:49:59;2.00;;;1.17;;
31306;SDS011;17935;51.120;13.132;2022-09-03T07:52:25;3.50;;;1.00;;
31306;SDS011;17935;51.120;13.132;2022-09-03T07:54:52;1.60;;;1.17;;
31306;SDS011;17935;51.120;13.132;2022-09-03T07:57:18;1.40;;;1.20;;
31306;SDS011;17935;51.120;13.132;2022-09-03T07:59:44;1.10;;;1.02;;
31306;SDS011;17935;51.120;13.132;2022-09-03T08:02:10;3.63;;;1.45;;
31306;SDS011;17935;51.120;13.132;2022-09-03T08:04:36;5.40;;;1.30;;
31306;SDS011;17935;51.120;13.132;2022-09-03T08:07:02;1.52;;;1.10;;
31306;SDS011;17935;51.120;13.132;2022-09-03T08:09:29;1.40;;;0.95;;
31306;SDS011;17935;51.120;13.132;2022-09-03T08:11:56;2.42;;;1.23;;
31306;SDS011;17935;51.120;13.132;2022-09-03T08:14:22;2.22;;;1.30;;
31306;SDS011;17935;51.120;13.132;2022-09-03T08:16:48;1.20;;;0.90;;
31306;SDS011;17935;51.120;13.132;2022-09-03T08:19:15;5.00;;;1.02;;
31306;SDS011;17935;51.120;13.132;2022-09-03T08:21:42;3.80;;;1.15;;
31306;SDS011;17935;51.120;13.132;2022-09-03T08:24:09;2.15;;;0.90;;
31306;SDS011;17935;51.120;13.132;2022-09-03T08:26:35;1.70;;;1.27;;
31306;SDS011;17935;51.120;13.132;2022-09-03T08:29:03;2.30;;;1.20;;
31306;SDS011;17935;51.120;13.132;2022-09-03T08:31:29;2.92;;;1.00;;
31306;SDS011;17935;51.120;13.132;2022-09-03T08:33:56;2.65;;;1.13;;
31306;SDS011;17935;51.120;13.132;2022-09-03T08:36:23;1.85;;;1.00;;
31306;SDS011;17935;51.120;13.132;2022-09-03T08:38:50;3.30;;;1.02;;
31306;SDS011;17935;51.120;13.132;2022-09-03T08:41:19;1.25;;;0.95;;
31306;SDS011;17935;51.120;13.132;2022-09-03T08:43:52;3.17;;;0.90;;
31306;SDS011;17935;51.120;13.132;2022-09-03T08:46:26;1.63;;;1.02;;
31306;SDS011;17935;51.120;13.132;2022-09-03T08:51:23;1.10;;;1.00;;
31306;SDS011;17935;51.120;13.132;2022-09-03T08:53:51;2.15;;;1.15;;
31306;SDS011;17935;51.120;13.132;2022-09-03T08:56:24;1.15;;;0.93;;
31306;SDS011;17935;51.120;13.132;2022-09-03T08:58:51;4.47;;;1.15;;
31306;SDS011;17935;51.120;13.132;2022-09-03T09:01:33;1.88;;;1.00;;
31306;SDS011;17935;51.120;13.132;2022-09-03T09:09:14;1.55;;;0.82;;
31306;SDS011;17935;51.120;13.132;2022-09-03T09:11:57;7.00;;;1.30;;
31306;SDS011;17935;51.120;13.132;2022-09-03T09:14:28;3.38;;;1.00;;
31306;SDS011;17935;51.120;13.132;2022-09-03T09:19:41;2.17;;;1.27;;
31306;SDS011;17935;51.120;13.132;2022-09-03T09:22:09;5.15;;;1.48;;
31306;SDS011;17935;51.120;13.132;2022-09-03T09:24:38;3.80;;;1.20;;
31306;SDS011;17935;51.120;13.132;2022-09-03T09:27:05;3.20;;;0.90;;
31306;SDS011;17935;51.120;13.132;2022-09-03T09:29:32;2.35;;;1.10;;
31306;SDS011;17935;51.120;13.132;2022-09-03T09:31:59;2.45;;;1.33;;
31306;SDS011;17935;51.120;13.132;2022-09-03T09:34:26;2.00;;;1.23;;
31306;SDS011;17935;51.120;13.132;2022-09-03T09:36:52;3.55;;;1.30;;
31306;SDS011;17935;51.120;13.132;2022-09-03T09:39:19;5.00;;;1.23;;
31306;SDS011;17935;51.120;13.132;2022-09-03T09:41:58;6.78;;;1.40;;
31306;SDS011;17935;51.120;13.132;2022-09-03T09:44:26;4.07;;;1.30;;
31306;SDS011;17935;51.120;13.132;2022-09-03T09:47:00;3.40;;;1.20;;
31306;SDS011;17935;51.120;13.132;2022-09-03T09:49:32;4.00;;;1.52;;
31306;SDS011;17935;51.120;13.132;2022-09-03T09:52:00;2.08;;;1.10;;
31306;SDS011;17935;51.120;13.132;2022-09-03T09:54:26;1.73;;;1.15;;
31306;SDS011;17935;51.120;13.132;2022-09-03T09:57:00;5.93;;;1.73;;
31306;SDS011;17935;51.120;13.132;2022-09-03T09:59:27;2.00;;;1.05;;
31306;SDS011;17935;51.120;13.132;2022-09-03T10:02:14;2.72;;;1.50;;
31306;SDS011;17935;51.120;13.132;2022-09-03T10:04:40;3.80;;;1.50;;
31306;SDS011;17935;51.120;13.132;2022-09-03T10:07:27;1.63;;;1.30;;
31306;SDS011;17935;51.120;13.132;2022-09-03T10:09:59;10.48;;;2.10;;
31306;SDS011;17935;51.120;13.132;2022-09-03T10:12:38;2.03;;;1.08;;
31306;SDS011;17935;51.120;13.132;2022-09-03T10:15:21;1.55;;;1.40;;
31306;SDS011;17935;51.120;13.132;2022-09-03T10:17:52;4.82;;;1.48;;
31306;SDS011;17935;51.120;13.132;2022-09-03T10:20:25;2.78;;;1.42;;
31306;SDS011;17935;51.120;13.132;2022-09-03T10:25:26;5.18;;;1.50;;
31306;SDS011;17935;51.120;13.132;2022-09-03T10:27:58;2.17;;;1.40;;
31306;SDS011;17935;51.120;13.132;2022-09-03T10:30:25;8.73;;;1.70;;
31306;SDS011;17935;51.120;13.132;2022-09-03T10:33:00;5.70;;;2.28;;
31306;SDS011;17935;51.120;13.132;2022-09-03T10:35:30;3.38;;;1.60;;
31306;SDS011;17935;51.120;13.132;2022-09-03T10:40:43;2.05;;;1.70;;
31306;SDS011;17935;51.120;13.132;2022-09-03T10:45:46;4.35;;;1.50;;
31306;SDS011;17935;51.120;13.132;2022-09-03T10:48:27;3.47;;;1.70;;
31306;SDS011;17935;51.120;13.132;2022-09-03T10:53:48;3.28;;;2.17;;
31306;SDS011;17935;51.120;13.132;2022-09-03T10:56:18;6.60;;;2.08;;
31306;SDS011;17935;51.120;13.132;2022-09-03T11:01:34;3.15;;;2.08;;
31306;SDS011;17935;51.120;13.132;2022-09-03T11:06:28;6.10;;;1.80;;
31306;SDS011;17935;51.120;13.132;2022-09-03T11:11:41;5.10;;;1.73;;
31306;SDS011;17935;51.120;13.132;2022-09-03T11:14:12;3.58;;;2.13;;
31306;SDS011;17935;51.120;13.132;2022-09-03T11:16:53;8.38;;;1.88;;
31306;SDS011;17935;51.120;13.132;2022-09-03T11:19:35;3.42;;;2.03;;
31306;SDS011;17935;51.120;13.132;2022-09-03T11:22:11;3.00;;;1.50;;
31306;SDS011;17935;51.120;13.132;2022-09-03T11:24:41;4.00;;;1.70;;
31306;SDS011;17935;51.120;13.132;2022-09-03T11:29:45;5.70;;;1.80;;
31306;SDS011;17935;51.120;13.132;2022-09-03T11:32:19;27.00;;;2.58;;
31306;SDS011;17935;51.120;13.132;2022-09-03T11:34:50;2.55;;;1.80;;
31306;SDS011;17935;51.120;13.132;2022-09-03T11:37:22;4.38;;;2.15;;
31306;SDS011;17935;51.120;13.132;2022-09-03T11:39:56;5.93;;;1.88;;
31306;SDS011;17935;51.120;13.132;2022-09-03T11:42:33;9.65;;;1.92;;
31306;SDS011;17935;51.120;13.132;2022-09-03T11:47:45;6.00;;;2.25;;
31306;SDS011;17935;51.120;13.132;2022-09-03T11:50:24;2.53;;;1.83;;
31306;SDS011;17935;51.120;13.132;2022-09-03T11:52:52;3.42;;;1.52;;
31306;SDS011;17935;51.120;13.132;2022-09-03T11:55:25;5.28;;;2.15;;
31306;SDS011;17935;51.120;13.132;2022-09-03T11:57:54;3.78;;;1.55;;
31306;SDS011;17935;51.120;13.132;2022-09-03T12:00:20;2.50;;;1.83;;
31306;SDS011;17935;51.120;13.132;2022-09-03T12:03:00;1.92;;;1.65;;
31306;SDS011;17935;51.120;13.132;2022-09-03T12:08:08;5.35;;;1.83;;
31306;SDS011;17935;51.120;13.132;2022-09-03T12:10:45;6.78;;;1.80;;
31306;SDS011;17935;51.120;13.132;2022-09-03T12:13:26;2.80;;;1.52;;
31306;SDS011;17935;51.120;13.132;2022-09-03T12:16:07;3.00;;;1.70;;
31306;SDS011;17935;51.120;13.132;2022-09-03T12:18:38;3.90;;;1.55;;
31306;SDS011;17935;51.120;13.132;2022-09-03T12:21:06;3.95;;;1.73;;
31306;SDS011;17935;51.120;13.132;2022-09-03T12:26:00;2.65;;;2.05;;
31306;SDS011;17935;51.120;13.132;2022-09-03T12:28:28;4.20;;;1.45;;
31306;SDS011;17935;51.120;13.132;2022-09-03T12:31:07;2.40;;;1.60;;
31306;SDS011;17935;51.120;13.132;2022-09-03T12:33:45;2.95;;;1.52;;
31306;SDS011;17935;51.120;13.132;2022-09-03T12:36:12;2.90;;;1.88;;
31306;SDS011;17935;51.120;13.132;2022-09-03T12:38:38;4.50;;;1.88;;
31306;SDS011;17935;51.120;13.132;2022-09-03T12:41:05;11.85;;;1.90;;
31306;SDS011;17935;51.120;13.132;2022-09-03T12:43:48;4.53;;;1.90;;
31306;SDS011;17935;51.120;13.132;2022-09-03T12:46:15;2.50;;;1.55;;
31306;SDS011;17935;51.120;13.132;2022-09-03T12:48:57;6.72;;;2.17;;
31306;SDS011;17935;51.120;13.132;2022-09-03T12:51:32;2.33;;;1.63;;
31306;SDS011;17935;51.120;13.132;2022-09-03T12:53:58;3.40;;;1.67;;
31306;SDS011;17935;51.120;13.132;2022-09-03T12:56:25;2.97;;;1.77;;
31306;SDS011;17935;51.120;13.132;2022-09-03T12:58:54;2.78;;;1.58;;
31306;SDS011;17935;51.120;13.132;2022-09-03T13:01:30;2.83;;;1.60;;
31306;SDS011;17935;51.120;13.132;2022-09-03T13:04:00;2.13;;;1.40;;
31306;SDS011;17935;51.120;13.132;2022-09-03T13:06:28;2.60;;;1.60;;
31306;SDS011;17935;51.120;13.132;2022-09-03T13:08:56;4.15;;;1.83;;
31306;SDS011;17935;51.120;13.132;2022-09-03T13:11:24;2.05;;;1.70;;
31306;SDS011;17935;51.120;13.132;2022-09-03T13:13:52;2.70;;;1.65;;
31306;SDS011;17935;51.120;13.132;2022-09-03T13:24:55;2.13;;;1.52;;
31306;SDS011;17935;51.120;13.132;2022-09-03T13:30:14;4.13;;;1.98;;
31306;SDS011;17935;51.120;13.132;2022-09-03T13:33:04;4.40;;;1.98;;
31306;SDS011;17935;51.120;13.132;2022-09-03T13:35:28;2.28;;;1.50;;
31306;SDS011;17935;51.120;13.132;2022-09-03T13:40:34;7.15;;;1.77;;
31306;SDS011;17935;51.120;13.132;2022-09-03T13:43:02;6.32;;;1.83;;
31306;SDS011;17935;51.120;13.132;2022-09-03T13:48:33;3.55;;;1.98;;
31306;SDS011;17935;51.120;13.132;2022-09-03T13:54:29;4.13;;;2.03;;
31306;SDS011;17935;51.120;13.132;2022-09-03T13:59:25;3.35;;;1.85;;
31306;SDS011;17935;51.120;13.132;2022-09-03T14:01:57;3.15;;;1.70;;
31306;SDS011;17935;51.120;13.132;2022-09-03T14:04:33;2.97;;;1.70;;
31306;SDS011;17935;51.120;13.132;2022-09-03T14:07:06;3.22;;;1.90;;
31306;SDS011;17935;51.120;13.132;2022-09-03T14:15:25;2.30;;;1.70;;
31306;SDS011;17935;51.120;13.132;2022-09-03T14:23:24;1.45;;;1.30;;
31306;SDS011;17935;51.120;13.132;2022-09-03T14:25:54;1.70;;;1.40;;
31306;SDS011;17935;51.120;13.132;2022-09-03T14:30:58;2.53;;;1.65;;
31306;SDS011;17935;51.120;13.132;2022-09-03T14:36:19;4.10;;;1.50;;
31306;SDS011;17935;51.120;13.132;2022-09-03T14:38:56;7.13;;;1.95;;
31306;SDS011;17935;51.120;13.132;2022-09-03T14:47:04;2.75;;;1.80;;
31306;SDS011;17935;51.120;13.132;2022-09-03T14:49:40;2.60;;;1.65;;
31306;SDS011;17935;51.120;13.132;2022-09-03T14:57:54;4.97;;;1.92;;
31306;SDS011;17935;51.120;13.132;2022-09-03T15:06:00;3.00;;;1.80;;
31306;SDS011;17935;51.120;13.132;2022-09-03T15:11:03;4.43;;;2.20;;
31306;SDS011;17935;51.120;13.132;2022-09-03T15:13:41;6.78;;;1.90;;
31306;SDS011;17935;51.120;13.132;2022-09-03T15:16:22;2.55;;;1.45;;
31306;SDS011;17935;51.120;13.132;2022-09-03T15:21:48;2.85;;;2.08;;
31306;SDS011;17935;51.120;13.132;2022-09-03T15:26:56;3.35;;;2.10;;
31306;SDS011;17935;51.120;13.132;2022-09-03T15:32:15;3.15;;;2.33;;
31306;SDS011;17935;51.120;13.132;2022-09-03T15:37:12;12.05;;;2.80;;
31306;SDS011;17935;51.120;13.132;2022-09-03T15:39:41;2.42;;;2.05;;
31306;SDS011;17935;51.120;13.132;2022-09-03T15:42:20;7.68;;;1.92;;
31306;SDS011;17935;51.120;13.132;2022-09-03T15:44:48;3.85;;;2.33;;
31306;SDS011;17935;51.120;13.132;2022-09-03T15:47:34;5.60;;;1.83;;
31306;SDS011;17935;51.120;13.132;2022-09-03T15:50:02;3.38;;;1.48;;
31306;SDS011;17935;51.120;13.132;2022-09-03T15:52:37;6.63;;;1.50;;
31306;SDS011;17935;51.120;13.132;2022-09-03T15:55:09;8.55;;;2.08;;
31306;SDS011;17935;51.120;13.132;2022-09-03T15:57:39;7.45;;;1.85;;
31306;SDS011;17935;51.120;13.132;2022-09-03T16:00:08;6.45;;;1.95;;
31306;SDS011;17935;51.120;13.132;2022-09-03T16:02:44;1.85;;;1.42;;
31306;SDS011;17935;51.120;13.132;2022-09-03T16:07:45;2.95;;;1.70;;
31306;SDS011;17935;51.120;13.132;2022-09-03T16:10:19;3.60;;;1.60;;
31306;SDS011;17935;51.120;13.132;2022-09-03T16:12:50;9.52;;;1.88;;
31306;SDS011;17935;51.120;13.132;2022-09-03T16:15:24;4.10;;;1.38;;
31306;SDS011;17935;51.120;13.132;2022-09-03T16:17:56;7.05;;;1.95;;
31306;SDS011;17935;51.120;13.132;2022-09-03T16:23:24;1.95;;;1.38;;
31306;SDS011;17935;51.120;13.132;2022-09-03T16:28:51;2.60;;;1.40;;
31306;SDS011;17935;51.120;13.132;2022-09-03T16:31:30;3.38;;;1.60;;
31306;SDS011;17935;51.120;13.132;2022-09-03T16:34:01;4.63;;;1.73;;
31306;SDS011;17935;51.120;13.132;2022-09-03T16:36:49;8.40;;;1.95;;
31306;SDS011;17935;51.120;13.132;2022-09-03T16:39:30;2.63;;;1.40;;
31306;SDS011;17935;51.120;13.132;2022-09-03T16:44:31;4.35;;;1.55;;
31306;SDS011;17935;51.120;13.132;2022-09-03T16:49:38;5.95;;;2.03;;
31306;SDS011;17935;51.120;13.132;2022-09-03T16:54:48;6.50;;;1.85;;
31306;SDS011;17935;51.120;13.132;2022-09-03T16:57:23;3.97;;;2.13;;
31306;SDS011;17935;51.120;13.132;2022-09-03T17:00:15;7.38;;;1.75;;
31306;SDS011;17935;51.120;13.132;2022-09-03T17:02:55;2.45;;;1.40;;
31306;SDS011;17935;51.120;13.132;2022-09-03T17:05:37;1.92;;;1.35;;
31306;SDS011;17935;51.120;13.132;2022-09-03T17:13:17;1.83;;;1.30;;
31306;SDS011;17935;51.120;13.132;2022-09-03T17:21:06;1.88;;;1.70;;
31306;SDS011;17935;51.120;13.132;2022-09-03T17:26:20;2.15;;;1.63;;
31306;SDS011;17935;51.120;13.132;2022-09-03T17:32:01;3.28;;;1.45;;
31306;SDS011;17935;51.120;13.132;2022-09-03T17:34:04;2.58;;;1.95;;
31306;SDS011;17935;51.120;13.132;2022-09-03T17:36:34;5.75;;;2.00;;
31306;SDS011;17935;51.120;13.132;2022-09-03T17:41:49;5.60;;;1.80;;
31306;SDS011;17935;51.120;13.132;2022-09-03T17:49:16;3.65;;;2.00;;
31306;SDS011;17935;51.120;13.132;2022-09-03T17:51:48;3.40;;;1.90;;
31306;SDS011;17935;51.120;13.132;2022-09-03T17:56:48;6.45;;;1.70;;
31306;SDS011;17935;51.120;13.132;2022-09-03T17:59:18;3.05;;;1.85;;
31306;SDS011;17935;51.120;13.132;2022-09-03T18:01:47;4.25;;;1.85;;
31306;SDS011;17935;51.120;13.132;2022-09-03T18:04:30;3.17;;;1.63;;
31306;SDS011;17935;51.120;13.132;2022-09-03T18:07:04;5.63;;;2.42;;